createdAt,value
2023-11-16T00:00:59.897Z,6.89
2023-11-16T00:02:33.374Z,6.86
2023-11-16T00:04:07.017Z,6.86
2023-11-16T00:05:45.303Z,6.88
2023-11-16T00:07:18.994Z,6.86
2023-11-16T00:08:53.019Z,6.89
2023-11-16T00:10:26.623Z,6.89
2023-11-16T00:12:01.137Z,6.89
2023-11-16T00:13:36.867Z,6.90
2023-11-16T00:15:11.234Z,6.90
2023-11-16T00:16:44.698Z,6.91
2023-11-16T00:18:19.313Z,6.95
2023-11-16T00:20:00.296Z,6.95
2023-11-16T00:21:33.621Z,6.94
2023-11-16T00:23:08.143Z,6.93
2023-11-16T00:24:41.722Z,6.85
2023-11-16T00:26:15.649Z,6.80
2023-11-16T00:27:49.152Z,6.83
2023-11-16T00:29:22.770Z,6.84
2023-11-16T00:30:59.731Z,6.79
2023-11-16T00:32:33.787Z,6.77
2023-11-16T00:34:12.107Z,6.76
2023-11-16T00:35:46.110Z,6.73
2023-11-16T00:37:19.720Z,6.66
2023-11-16T00:38:53.390Z,6.62
2023-11-16T00:40:26.585Z,6.65
2023-11-16T00:42:00.753Z,6.67
2023-11-16T00:43:34.688Z,6.72
2023-11-16T00:45:08.645Z,6.76
2023-11-16T00:46:42.411Z,6.81
2023-11-16T00:48:16.033Z,6.84
2023-11-16T00:49:52.580Z,6.88
2023-11-16T00:51:27.282Z,6.89
2023-11-16T00:53:01.461Z,6.93
2023-11-16T00:54:38.388Z,6.96
2023-11-16T00:56:15.742Z,6.99
2023-11-16T00:57:51.833Z,6.98
2023-11-16T00:59:28.671Z,6.98
2023-11-16T01:01:08.629Z,6.98
2023-11-16T01:02:43.875Z,6.97
2023-11-16T01:04:17.279Z,6.94
2023-11-16T01:05:50.647Z,6.91
2023-11-16T01:07:23.879Z,6.89
2023-11-16T01:08:59.486Z,6.87
2023-11-16T01:10:32.913Z,6.87
2023-11-16T01:12:06.973Z,6.80
2023-11-16T01:13:40.332Z,6.83
2023-11-16T01:15:16.482Z,6.83
2023-11-16T01:16:52.778Z,6.86
2023-11-16T01:18:26.864Z,6.87
2023-11-16T01:20:02.978Z,6.89
2023-11-16T01:21:37.960Z,6.95
2023-11-16T01:23:11.904Z,6.97
2023-11-16T01:24:46.334Z,6.99
2023-11-16T01:26:20.044Z,7.05
2023-11-16T01:27:53.848Z,7.07
2023-11-16T01:29:27.045Z,7.07
2023-11-16T01:31:00.769Z,7.10
2023-11-16T01:32:37.256Z,7.06
2023-11-16T01:34:10.979Z,7.06
2023-11-16T01:35:44.333Z,7.02
2023-11-16T01:37:17.791Z,6.99
2023-11-16T01:38:51.490Z,6.96
2023-11-16T01:40:25.113Z,6.93
2023-11-16T01:42:00.264Z,6.93
2023-11-16T01:43:38.253Z,6.95
2023-11-16T01:45:36.339Z,6.95
2023-11-16T01:47:10.498Z,6.96
2023-11-16T01:48:51.033Z,6.93
2023-11-16T01:50:24.019Z,6.90
2023-11-16T01:51:58.033Z,6.89
2023-11-16T01:53:41.302Z,6.86
2023-11-16T01:55:17.311Z,6.86
2023-11-16T01:56:52.006Z,6.80
2023-11-16T01:58:25.798Z,6.78
2023-11-16T01:59:59.473Z,6.71
2023-11-16T02:01:35.448Z,6.64
2023-11-16T02:03:11.436Z,6.60
2023-11-16T02:04:45.707Z,6.54
2023-11-16T02:06:18.954Z,6.52
2023-11-16T02:07:57.466Z,6.52
2023-11-16T02:09:31.102Z,6.52
2023-11-16T02:11:04.689Z,6.51
2023-11-16T02:12:38.465Z,6.51
2023-11-16T02:14:12.074Z,6.54
2023-11-16T02:15:49.526Z,6.54
2023-11-16T02:17:22.832Z,6.53
2023-11-16T02:18:56.511Z,6.53
2023-11-16T02:20:34.938Z,6.55
2023-11-16T02:22:10.594Z,6.55
2023-11-16T02:23:44.704Z,6.55
2023-11-16T02:25:18.296Z,6.56
2023-11-16T02:26:52.213Z,6.55
2023-11-16T02:28:25.912Z,6.52
2023-11-16T02:29:59.529Z,6.53
2023-11-16T02:31:38.477Z,6.54
2023-11-16T02:33:13.083Z,6.55
2023-11-16T02:34:46.608Z,6.57
2023-11-16T02:36:20.128Z,6.57
2023-11-16T02:37:53.822Z,6.56
2023-11-16T02:39:33.447Z,6.54
2023-11-16T02:41:06.799Z,6.52
2023-11-16T02:42:40.647Z,6.52
2023-11-16T02:44:13.990Z,6.53
2023-11-16T02:45:48.126Z,6.57
2023-11-16T02:47:22.187Z,6.62
2023-11-16T02:48:56.964Z,6.66
2023-11-16T02:50:30.335Z,6.73
2023-11-16T02:52:12.632Z,6.74
2023-11-16T02:53:45.940Z,6.74
2023-11-16T02:55:21.228Z,6.77
2023-11-16T02:56:55.385Z,6.76
2023-11-16T02:58:29.374Z,6.76
2023-11-16T03:00:07.735Z,6.78
2023-11-16T03:01:40.776Z,6.77
2023-11-16T03:03:14.761Z,6.78
2023-11-16T03:04:51.014Z,6.79
2023-11-16T03:06:24.831Z,6.81
2023-11-16T03:08:05.624Z,6.84
2023-11-16T03:09:39.365Z,6.85
2023-11-16T03:11:20.362Z,6.85
2023-11-16T03:12:53.927Z,6.87
2023-11-16T03:14:27.711Z,6.89
2023-11-16T03:16:06.686Z,6.91
2023-11-16T03:17:41.118Z,6.94
2023-11-16T03:19:14.919Z,6.98
2023-11-16T03:20:49.085Z,7.00
2023-11-16T03:22:22.986Z,7.02
2023-11-16T03:23:56.083Z,7.05
2023-11-16T03:25:35.468Z,7.08
2023-11-16T03:27:08.773Z,7.10
2023-11-16T03:28:44.518Z,7.15
2023-11-16T03:30:18.753Z,7.17
2023-11-16T03:31:51.981Z,7.19
2023-11-16T03:33:25.429Z,7.24
2023-11-16T03:35:01.363Z,7.26
2023-11-16T03:36:34.988Z,7.28
2023-11-16T03:38:11.987Z,7.32
2023-11-16T03:39:46.577Z,7.34
2023-11-16T03:41:20.059Z,7.33
2023-11-16T03:42:53.234Z,7.35
2023-11-16T03:44:29.401Z,7.36
2023-11-16T03:46:04.034Z,7.32
2023-11-16T03:47:37.490Z,7.33
2023-11-16T03:49:14.957Z,7.33
2023-11-16T03:50:48.012Z,7.35
2023-11-16T03:52:21.551Z,7.33
2023-11-16T03:53:54.504Z,7.32
2023-11-16T03:55:28.424Z,7.33
2023-11-16T03:57:01.596Z,7.31
2023-11-16T03:58:34.864Z,7.31
2023-11-16T04:00:09.784Z,7.32
2023-11-16T04:01:46.973Z,7.29
2023-11-16T04:03:20.772Z,7.27
2023-11-16T04:04:53.910Z,7.34
2023-11-16T04:06:27.641Z,7.35
2023-11-16T04:08:01.385Z,7.32
2023-11-16T04:09:40.957Z,7.30
2023-11-16T04:11:14.302Z,7.30
2023-11-16T04:12:48.300Z,7.31
2023-11-16T04:14:22.518Z,7.29
2023-11-16T04:15:55.795Z,7.29
2023-11-16T04:17:31.759Z,7.25
2023-11-16T04:19:05.134Z,7.21
2023-11-16T04:20:38.731Z,7.20
2023-11-16T04:22:12.252Z,7.19
2023-11-16T04:23:50.290Z,7.16
2023-11-16T04:25:24.471Z,7.16
2023-11-16T04:27:00.983Z,7.17
2023-11-16T04:28:36.847Z,7.17
2023-11-16T04:30:11.247Z,7.19
2023-11-16T04:31:45.185Z,7.18
2023-11-16T04:33:21.972Z,7.17
2023-11-16T04:34:56.137Z,7.18
2023-11-16T04:36:31.968Z,7.18
2023-11-16T04:38:07.808Z,7.16
2023-11-16T04:39:40.948Z,7.14
2023-11-16T04:41:14.732Z,7.15
2023-11-16T04:42:48.302Z,7.13
2023-11-16T04:44:22.074Z,7.12
2023-11-16T04:45:55.378Z,7.07
2023-11-16T04:47:29.046Z,7.05
2023-11-16T04:49:02.485Z,7.04
2023-11-16T04:50:40.388Z,6.99
2023-11-16T04:52:14.247Z,6.99
2023-11-16T04:53:49.393Z,6.97
2023-11-16T04:55:22.398Z,7.00
2023-11-16T04:56:56.243Z,7.01
2023-11-16T04:58:31.848Z,7.02
2023-11-16T05:00:12.111Z,6.99
2023-11-16T05:01:46.101Z,6.98
2023-11-16T05:03:23.654Z,7.01
2023-11-16T05:05:00.060Z,7.00
2023-11-16T05:06:42.180Z,7.00
2023-11-16T05:08:15.425Z,6.98
2023-11-16T05:09:49.020Z,6.97
2023-11-16T05:11:24.415Z,6.97
2023-11-16T05:12:59.146Z,6.98
2023-11-16T05:14:33.176Z,6.97
2023-11-16T05:16:08.267Z,6.96
2023-11-16T05:17:43.622Z,6.99
2023-11-16T05:19:17.699Z,6.98
2023-11-16T05:20:51.025Z,7.01
2023-11-16T05:22:33.537Z,6.99
2023-11-16T05:24:08.298Z,7.00
2023-11-16T05:25:41.630Z,6.96
2023-11-16T05:27:17.855Z,6.97
2023-11-16T05:28:51.356Z,6.97
2023-11-16T05:30:25.590Z,6.98
2023-11-16T05:31:59.797Z,6.98
2023-11-16T05:33:33.747Z,6.98
2023-11-16T05:35:12.731Z,7.01
2023-11-16T05:36:47.444Z,7.01
2023-11-16T05:38:20.700Z,7.02
2023-11-16T05:39:54.782Z,7.01
2023-11-16T05:41:29.949Z,7.03
2023-11-16T05:43:07.161Z,7.00
2023-11-16T05:44:40.309Z,6.96
2023-11-16T05:46:17.328Z,7.00
2023-11-16T05:47:50.791Z,6.99
2023-11-16T05:49:24.918Z,6.98
2023-11-16T05:51:01.292Z,6.97
2023-11-16T05:52:35.970Z,6.99
2023-11-16T05:54:09.964Z,7.01
2023-11-16T05:55:43.479Z,7.02
2023-11-16T05:57:17.135Z,7.06
2023-11-16T05:58:51.873Z,7.06
2023-11-16T06:00:28.433Z,7.11
2023-11-16T06:02:02.175Z,7.14
2023-11-16T06:03:36.030Z,7.14
2023-11-16T06:05:11.062Z,7.13
2023-11-16T06:06:46.393Z,7.13
2023-11-16T06:08:20.135Z,7.12
2023-11-16T06:09:53.185Z,7.09
2023-11-16T06:11:31.715Z,7.05
2023-11-16T06:13:05.420Z,7.01
2023-11-16T06:14:45.199Z,7.00
2023-11-16T06:16:20.825Z,6.99
2023-11-16T06:17:54.086Z,7.00
2023-11-16T06:19:30.553Z,6.98
2023-11-16T06:21:04.335Z,6.97
2023-11-16T06:22:41.766Z,6.91
2023-11-16T06:24:15.336Z,6.95
2023-11-16T06:25:48.621Z,6.95
2023-11-16T06:27:21.857Z,6.95
2023-11-16T06:28:54.964Z,7.00
2023-11-16T06:30:30.013Z,7.02
2023-11-16T06:32:05.824Z,7.04
2023-11-16T06:33:39.132Z,7.10
2023-11-16T06:35:13.136Z,7.12
2023-11-16T06:36:47.317Z,7.14
2023-11-16T06:38:21.185Z,7.13
2023-11-16T06:39:54.472Z,7.14
2023-11-16T06:41:28.034Z,7.16
2023-11-16T06:43:01.507Z,7.17
2023-11-16T06:44:37.469Z,7.17
2023-11-16T06:46:11.122Z,7.18
2023-11-16T06:47:44.355Z,7.23
2023-11-16T06:49:21.190Z,7.25
2023-11-16T06:50:55.667Z,7.29
2023-11-16T06:52:28.792Z,7.34
2023-11-16T06:54:02.006Z,7.36
2023-11-16T06:55:35.982Z,7.37
2023-11-16T06:57:13.934Z,7.38
2023-11-16T06:58:47.066Z,7.39
2023-11-16T07:00:23.280Z,7.43
2023-11-16T07:01:56.758Z,7.45
2023-11-16T07:03:34.596Z,7.45
2023-11-16T07:05:08.918Z,7.49
2023-11-16T07:06:42.355Z,7.50
2023-11-16T07:08:16.149Z,7.52
2023-11-16T07:09:49.536Z,7.51
2023-11-16T07:11:22.748Z,7.50
2023-11-16T07:12:56.336Z,7.51
2023-11-16T07:14:36.649Z,7.51
2023-11-16T07:16:16.936Z,7.55
2023-11-16T07:17:50.225Z,7.58
2023-11-16T07:19:26.382Z,7.63
2023-11-16T07:21:00.416Z,7.67
2023-11-16T07:22:33.767Z,7.72
2023-11-16T07:24:07.240Z,7.80
2023-11-16T07:25:40.559Z,7.90
2023-11-16T07:27:14.665Z,7.97
2023-11-16T07:28:50.826Z,8.00
2023-11-16T07:30:24.128Z,8.01
2023-11-16T07:31:59.069Z,8.00
2023-11-16T07:33:33.279Z,7.90
2023-11-16T07:35:10.085Z,7.84
2023-11-16T07:36:43.742Z,7.81
2023-11-16T07:38:17.260Z,7.81
2023-11-16T07:39:50.668Z,7.81
2023-11-16T07:41:29.413Z,7.82
2023-11-16T07:43:02.893Z,7.74
2023-11-16T07:44:37.456Z,7.74
2023-11-16T07:46:10.910Z,7.71
2023-11-16T07:48:01.120Z,7.70
2023-11-16T07:49:34.896Z,7.71
2023-11-16T07:51:09.469Z,7.74
2023-11-16T07:52:44.660Z,7.79
2023-11-16T07:54:19.254Z,7.86
2023-11-16T07:55:57.713Z,7.91
2023-11-16T07:57:31.139Z,7.92
2023-11-16T07:59:04.783Z,7.95
2023-11-16T08:00:42.492Z,8.00
2023-11-16T08:02:16.434Z,8.06
2023-11-16T08:03:50.349Z,8.12
2023-11-16T08:05:24.042Z,8.18
2023-11-16T08:06:57.502Z,8.29
2023-11-16T08:08:31.006Z,8.36
2023-11-16T08:10:06.144Z,8.40
2023-11-16T08:11:42.034Z,8.42
2023-11-16T08:13:15.802Z,8.36
2023-11-16T08:14:49.575Z,8.34
2023-11-16T08:16:25.652Z,8.33
2023-11-16T08:18:00.179Z,8.31
2023-11-16T08:19:34.275Z,8.30
2023-11-16T08:21:08.509Z,8.31
2023-11-16T08:22:43.754Z,8.32
2023-11-16T08:24:18.860Z,8.31
2023-11-16T08:25:52.039Z,8.30
2023-11-16T08:27:25.566Z,8.31
2023-11-16T08:28:59.445Z,8.43
2023-11-16T08:30:33.012Z,8.56
2023-11-16T08:32:07.221Z,8.71
2023-11-16T08:33:44.797Z,8.84
2023-11-16T08:35:18.823Z,8.96
2023-11-16T08:36:52.203Z,9.07
2023-11-16T08:38:26.343Z,9.24
2023-11-16T08:40:01.024Z,9.41
2023-11-16T08:41:36.745Z,9.58
2023-11-16T08:43:10.130Z,9.70
2023-11-16T08:44:44.138Z,9.88
2023-11-16T08:46:17.713Z,10.05
2023-11-16T08:47:57.754Z,10.28
2023-11-16T08:49:30.881Z,10.45
2023-11-16T08:51:07.569Z,10.53
2023-11-16T08:52:42.161Z,10.58
2023-11-16T08:54:15.516Z,10.63
2023-11-16T08:55:51.641Z,10.72
2023-11-16T08:57:24.754Z,10.80
2023-11-16T08:59:02.338Z,10.82
2023-11-16T09:00:38.559Z,10.75
2023-11-16T09:02:13.566Z,10.71
2023-11-16T09:03:51.161Z,10.69
2023-11-16T09:05:25.821Z,10.71
2023-11-16T09:06:59.709Z,10.71
2023-11-16T09:08:36.489Z,10.71
2023-11-16T09:10:09.968Z,10.70
2023-11-16T09:11:43.253Z,10.71
2023-11-16T09:13:16.840Z,10.65
2023-11-16T09:14:50.238Z,10.63
2023-11-16T09:16:23.955Z,10.63
2023-11-16T09:18:02.527Z,10.65
2023-11-16T09:19:36.380Z,10.65
2023-11-16T09:21:10.288Z,10.58
2023-11-16T09:22:43.853Z,10.50
2023-11-16T09:24:17.329Z,10.39
2023-11-16T09:25:50.911Z,10.28
2023-11-16T09:27:27.590Z,10.10
2023-11-16T09:29:07.925Z,10.00
2023-11-16T09:30:43.231Z,9.96
2023-11-16T09:32:16.344Z,9.88
2023-11-16T09:33:49.986Z,9.85
2023-11-16T09:35:24.501Z,9.82
2023-11-16T09:36:58.816Z,9.80
2023-11-16T09:38:32.966Z,9.77
2023-11-16T09:40:08.132Z,9.77
2023-11-16T09:41:48.819Z,9.73
2023-11-16T09:43:22.584Z,9.72
2023-11-16T09:45:01.301Z,9.76
2023-11-16T09:46:35.723Z,9.82
2023-11-16T09:48:09.954Z,9.97
2023-11-16T09:49:46.199Z,10.11
2023-11-16T09:51:22.060Z,10.27
2023-11-16T09:53:00.086Z,10.43
2023-11-16T09:54:37.618Z,10.61
2023-11-16T09:56:30.291Z,10.79
2023-11-16T09:58:13.577Z,11.02
2023-11-16T09:59:47.804Z,11.18
2023-11-16T10:01:21.451Z,11.32
2023-11-16T10:02:57.768Z,11.38
2023-11-16T10:04:30.925Z,11.42
2023-11-16T10:06:05.335Z,11.47
2023-11-16T10:07:39.439Z,11.50
2023-11-16T10:09:16.165Z,11.47
2023-11-16T10:11:00.124Z,11.43
2023-11-16T10:12:33.643Z,11.33
2023-11-16T10:14:07.336Z,11.30
2023-11-16T10:15:40.799Z,11.16
2023-11-16T10:17:14.245Z,11.08
2023-11-16T10:18:47.903Z,10.93
2023-11-16T10:20:25.015Z,10.84
2023-11-16T10:21:59.664Z,10.89
2023-11-16T10:23:36.452Z,10.92
2023-11-16T10:25:10.946Z,11.02
2023-11-16T10:26:56.073Z,11.10
2023-11-16T10:28:32.821Z,11.19
2023-11-16T10:30:21.052Z,11.26
2023-11-16T10:31:55.078Z,11.32
2023-11-16T10:33:30.087Z,11.36
2023-11-16T10:35:07.407Z,11.46
2023-11-16T10:36:41.575Z,11.59
2023-11-16T10:38:17.624Z,11.79
2023-11-16T10:39:52.795Z,11.97
2023-11-16T10:41:26.294Z,12.15
2023-11-16T10:43:01.090Z,12.21
2023-11-16T10:44:37.047Z,12.19
2023-11-16T10:46:14.333Z,12.13
2023-11-16T10:47:47.731Z,12.05
2023-11-16T10:49:21.095Z,12.03
2023-11-16T10:51:01.354Z,12.08
2023-11-16T10:52:39.290Z,12.24
2023-11-16T10:54:15.919Z,12.40
2023-11-16T10:55:51.801Z,12.48
2023-11-16T10:57:26.010Z,12.45
2023-11-16T10:59:03.911Z,12.35
2023-11-16T11:00:38.267Z,12.23
2023-11-16T11:02:12.343Z,12.05
2023-11-16T11:03:50.906Z,11.91
2023-11-16T11:05:24.633Z,11.80
2023-11-16T11:07:00.634Z,11.76
2023-11-16T11:08:39.399Z,11.69
2023-11-16T11:10:15.255Z,11.63
2023-11-16T11:11:48.996Z,11.57
2023-11-16T11:13:26.013Z,11.52
2023-11-16T11:14:59.166Z,11.41
2023-11-16T11:16:32.982Z,11.31
2023-11-16T11:18:07.904Z,11.23
2023-11-16T11:19:41.128Z,11.17
2023-11-16T11:21:17.948Z,11.15
2023-11-16T11:23:13.653Z,11.20
2023-11-16T11:24:48.836Z,11.22
2023-11-16T11:26:22.109Z,11.25
2023-11-16T11:27:56.380Z,11.30
2023-11-16T11:29:32.980Z,11.36
2023-11-16T11:31:07.231Z,11.45
2023-11-16T11:32:56.421Z,11.59
2023-11-16T11:34:35.373Z,11.80
2023-11-16T11:36:11.856Z,11.87
2023-11-16T11:37:45.705Z,11.87
2023-11-16T11:39:19.388Z,11.78
2023-11-16T11:41:01.897Z,11.61
2023-11-16T11:42:38.539Z,11.51
2023-11-16T11:44:17.650Z,11.40
2023-11-16T11:45:55.357Z,11.35
2023-11-16T11:47:28.824Z,11.31
2023-11-16T11:49:05.148Z,11.26
2023-11-16T11:50:40.924Z,11.22
2023-11-16T11:52:18.128Z,11.22
2023-11-16T11:53:53.438Z,11.24
2023-11-16T11:55:27.199Z,11.29
2023-11-16T11:57:00.717Z,11.47
2023-11-16T11:58:39.331Z,11.73
2023-11-16T12:00:15.753Z,12.01
2023-11-16T12:01:54.271Z,12.36
2023-11-16T12:03:30.050Z,12.67
2023-11-16T12:05:03.885Z,12.91
2023-11-16T12:06:37.667Z,13.02
2023-11-16T12:08:11.242Z,13.06
2023-11-16T12:09:44.792Z,13.08
2023-11-16T12:11:21.092Z,13.03
2023-11-16T12:13:03.202Z,12.97
2023-11-16T12:14:48.013Z,12.93
2023-11-16T12:16:23.468Z,12.89
2023-11-16T12:17:57.282Z,12.83
2023-11-16T12:19:31.947Z,12.84
2023-11-16T12:21:15.258Z,12.84
2023-11-16T12:22:49.834Z,12.82
2023-11-16T12:24:26.039Z,12.76
2023-11-16T12:26:03.493Z,12.71
2023-11-16T12:27:40.083Z,12.64
2023-11-16T12:29:15.338Z,12.65
2023-11-16T12:30:48.608Z,12.60
2023-11-16T12:32:21.898Z,12.54
2023-11-16T12:33:57.005Z,12.52
2023-11-16T12:35:30.723Z,12.38
2023-11-16T12:37:04.793Z,12.31
2023-11-16T12:38:42.809Z,12.25
2023-11-16T12:40:16.717Z,12.20
2023-11-16T12:41:50.307Z,12.16
2023-11-16T12:43:23.815Z,12.18
2023-11-16T12:44:57.010Z,12.13
2023-11-16T12:46:30.474Z,12.11
2023-11-16T12:48:04.477Z,12.09
2023-11-16T12:49:38.514Z,12.03
2023-11-16T12:51:16.406Z,11.96
2023-11-16T12:52:50.150Z,11.90
2023-11-16T12:54:23.520Z,11.90
2023-11-16T12:55:57.236Z,11.90
2023-11-16T12:57:31.062Z,11.90
2023-11-16T12:59:06.131Z,11.92
2023-11-16T13:00:42.450Z,11.96
2023-11-16T13:02:19.721Z,11.99
2023-11-16T13:03:55.513Z,12.05
2023-11-16T13:05:29.400Z,12.10
2023-11-16T13:07:02.586Z,12.13
2023-11-16T13:08:36.333Z,12.13
2023-11-16T13:10:11.268Z,12.09
2023-11-16T13:11:45.963Z,12.03
2023-11-16T13:13:19.832Z,11.97
2023-11-16T13:14:53.214Z,11.85
2023-11-16T13:16:26.725Z,11.72
2023-11-16T13:17:59.733Z,11.59
2023-11-16T13:19:32.619Z,11.59
2023-11-16T13:21:10.117Z,11.64
2023-11-16T13:22:42.968Z,11.73
2023-11-16T13:24:19.484Z,11.82
2023-11-16T13:25:52.948Z,11.89
2023-11-16T13:27:35.072Z,11.87
2023-11-16T13:29:15.837Z,11.82
2023-11-16T13:30:52.149Z,11.77
2023-11-16T13:32:29.454Z,11.73
2023-11-16T13:34:03.300Z,11.80
2023-11-16T13:35:36.640Z,11.89
2023-11-16T13:37:17.402Z,11.96
2023-11-16T13:38:50.815Z,12.01
2023-11-16T13:40:24.321Z,12.01
2023-11-16T13:41:57.915Z,11.99
2023-11-16T13:43:31.388Z,11.94
2023-11-16T13:45:06.897Z,11.83
2023-11-16T13:46:40.776Z,11.72
2023-11-16T13:48:22.165Z,11.58
2023-11-16T13:49:58.151Z,11.40
2023-11-16T13:51:37.425Z,11.23
2023-11-16T13:53:10.655Z,11.09
2023-11-16T13:54:44.072Z,10.95
2023-11-16T13:56:19.054Z,10.82
2023-11-16T13:57:53.712Z,10.69
2023-11-16T13:59:29.608Z,10.61
2023-11-16T14:01:03.170Z,10.58
2023-11-16T14:02:41.112Z,10.57
2023-11-16T14:04:17.415Z,10.58
2023-11-16T14:05:53.630Z,10.62
2023-11-16T14:07:26.916Z,10.61
2023-11-16T14:09:00.201Z,10.61
2023-11-16T14:10:33.688Z,10.60
2023-11-16T14:12:07.146Z,10.63
2023-11-16T14:13:45.577Z,10.61
2023-11-16T14:15:22.482Z,10.60
2023-11-16T14:16:56.361Z,10.57
2023-11-16T14:18:30.324Z,10.56
2023-11-16T14:20:05.119Z,10.56
2023-11-16T14:21:38.524Z,10.54
2023-11-16T14:23:14.585Z,10.55
2023-11-16T14:24:48.721Z,10.51
2023-11-16T14:26:22.377Z,10.52
2023-11-16T14:27:56.059Z,10.49
2023-11-16T14:29:32.826Z,10.46
2023-11-16T14:31:07.460Z,10.43
2023-11-16T14:32:41.052Z,10.41
2023-11-16T14:34:16.622Z,10.42
2023-11-16T14:35:49.917Z,10.40
2023-11-16T14:37:23.771Z,10.37
2023-11-16T14:38:56.906Z,10.31
2023-11-16T14:40:32.005Z,10.22
2023-11-16T14:42:06.325Z,10.16
2023-11-16T14:43:39.837Z,10.13
2023-11-16T14:45:13.513Z,10.12
2023-11-16T14:46:51.066Z,10.06
2023-11-16T14:48:24.849Z,9.99
2023-11-16T14:49:58.308Z,9.94
2023-11-16T14:51:32.753Z,9.87
2023-11-16T14:53:08.446Z,9.82
2023-11-16T14:54:43.839Z,9.76
2023-11-16T14:56:17.175Z,9.71
2023-11-16T14:57:50.357Z,9.70
2023-11-16T14:59:24.061Z,9.67
2023-11-16T15:00:57.296Z,9.65
2023-11-16T15:02:30.520Z,9.66
2023-11-16T15:04:06.842Z,9.65
2023-11-16T15:05:46.702Z,9.65
2023-11-16T15:07:19.875Z,9.70
2023-11-16T15:08:53.317Z,9.72
2023-11-16T15:10:26.977Z,9.73
2023-11-16T15:12:00.370Z,9.71
2023-11-16T15:13:35.352Z,9.68
2023-11-16T15:15:14.261Z,9.67
2023-11-16T15:16:48.966Z,9.64
2023-11-16T15:18:22.363Z,9.61
2023-11-16T15:19:56.355Z,9.58
2023-11-16T15:21:29.860Z,9.52
2023-11-16T15:23:03.715Z,9.51
2023-11-16T15:24:39.519Z,9.44
2023-11-16T15:26:17.461Z,9.47
2023-11-16T15:27:51.763Z,9.45
2023-11-16T15:29:25.079Z,9.46
2023-11-16T15:30:58.605Z,9.48
2023-11-16T15:32:31.811Z,9.50
2023-11-16T15:34:10.970Z,9.53
2023-11-16T15:35:44.255Z,9.54
2023-11-16T15:37:18.085Z,9.56
2023-11-16T15:38:53.362Z,9.54
2023-11-16T15:40:26.785Z,9.55
2023-11-16T15:42:00.721Z,9.56
2023-11-16T15:43:34.506Z,9.55
2023-11-16T15:45:12.199Z,9.52
2023-11-16T15:46:49.056Z,9.49
2023-11-16T15:48:27.672Z,9.47
2023-11-16T15:50:04.385Z,9.46
2023-11-16T15:51:38.336Z,9.46
2023-11-16T15:53:12.365Z,9.47
2023-11-16T15:54:45.902Z,9.47
2023-11-16T15:56:20.505Z,9.49
2023-11-16T15:57:54.556Z,9.49
2023-11-16T15:59:28.076Z,9.48
2023-11-16T16:01:01.908Z,9.51
2023-11-16T16:02:41.351Z,9.52
2023-11-16T16:04:14.650Z,9.53
2023-11-16T16:05:48.685Z,9.54
2023-11-16T16:07:21.931Z,9.54
2023-11-16T16:08:55.985Z,9.53
2023-11-16T16:10:29.792Z,9.53
2023-11-16T16:12:03.128Z,9.52
2023-11-16T16:13:39.217Z,9.50
2023-11-16T16:15:12.606Z,9.51
2023-11-16T16:16:45.974Z,9.49
2023-11-16T16:18:19.459Z,9.50
2023-11-16T16:19:53.081Z,9.47
2023-11-16T16:21:26.820Z,9.49
2023-11-16T16:23:00.579Z,9.50
2023-11-16T16:24:34.130Z,9.51
2023-11-16T16:26:08.115Z,9.48
2023-11-16T16:27:45.031Z,9.47
2023-11-16T16:29:19.006Z,9.43
2023-11-16T16:30:52.759Z,9.35
2023-11-16T16:32:26.512Z,9.31
2023-11-16T16:34:00.512Z,9.28
2023-11-16T16:35:37.824Z,9.26
2023-11-16T16:37:11.687Z,9.22
2023-11-16T16:38:54.450Z,9.20
2023-11-16T16:40:27.544Z,9.17
2023-11-16T16:42:01.472Z,9.13
2023-11-16T16:43:39.447Z,9.15
2023-11-16T16:45:13.083Z,9.15
2023-11-16T16:46:46.376Z,9.15
2023-11-16T16:48:20.073Z,9.12
2023-11-16T16:49:53.623Z,9.10
2023-11-16T16:51:26.668Z,9.11
2023-11-16T16:52:59.644Z,9.10
2023-11-16T16:54:35.481Z,9.12
2023-11-16T16:56:08.905Z,9.16
2023-11-16T16:57:42.179Z,9.17
2023-11-16T16:59:18.672Z,9.18
2023-11-16T17:00:52.608Z,9.15
2023-11-16T17:02:25.863Z,9.08
2023-11-16T17:03:59.745Z,9.04
2023-11-16T17:05:44.829Z,8.96
2023-11-16T17:07:17.967Z,8.95
2023-11-16T17:08:52.438Z,8.92
2023-11-16T17:10:25.705Z,8.89
2023-11-16T17:11:58.956Z,8.84
2023-11-16T17:13:31.935Z,8.81
2023-11-16T17:15:18.473Z,8.74
2023-11-16T17:16:52.601Z,8.71
2023-11-16T17:18:26.693Z,8.57
2023-11-16T17:20:00.215Z,8.53
2023-11-16T17:21:34.254Z,8.52
2023-11-16T17:23:07.478Z,8.54
2023-11-16T17:24:41.531Z,8.59
2023-11-16T17:26:14.976Z,8.55
2023-11-16T17:27:49.261Z,8.55
2023-11-16T17:29:22.825Z,8.53
2023-11-16T17:30:56.320Z,8.53
2023-11-16T17:32:29.634Z,8.57
2023-11-16T17:34:06.023Z,8.61
2023-11-16T17:35:39.179Z,8.65
2023-11-16T17:37:17.723Z,8.66
2023-11-16T17:38:51.164Z,8.68
2023-11-16T17:40:24.843Z,8.68
2023-11-16T17:41:59.840Z,8.68
2023-11-16T17:43:38.027Z,8.68
2023-11-16T17:45:11.485Z,8.65
2023-11-16T17:46:44.831Z,8.67
2023-11-16T17:48:18.477Z,8.66
2023-11-16T17:49:51.827Z,8.65
2023-11-16T17:51:25.555Z,8.64
2023-11-16T17:52:58.934Z,8.63
2023-11-16T17:54:33.009Z,8.62
2023-11-16T17:56:06.866Z,8.62
2023-11-16T17:57:40.605Z,8.63
2023-11-16T17:59:14.209Z,8.65
2023-11-16T18:00:48.007Z,8.66
2023-11-16T18:02:21.933Z,8.66
2023-11-16T18:03:55.458Z,8.67
2023-11-16T18:05:28.698Z,8.66
2023-11-16T18:07:01.939Z,8.65
2023-11-16T18:08:35.246Z,8.65
2023-11-16T18:10:11.453Z,8.63
2023-11-16T18:11:46.332Z,8.63
2023-11-16T18:13:22.581Z,8.61
2023-11-16T18:14:56.111Z,8.59
2023-11-16T18:16:29.686Z,8.53
2023-11-16T18:18:04.357Z,8.49
2023-11-16T18:19:38.332Z,8.45
2023-11-16T18:21:11.547Z,8.45
2023-11-16T18:22:45.059Z,8.47
2023-11-16T18:24:18.988Z,8.48
2023-11-16T18:25:53.961Z,8.49
2023-11-16T18:27:30.582Z,8.51
2023-11-16T18:29:04.582Z,8.53
2023-11-16T18:30:42.953Z,8.54
2023-11-16T18:32:16.128Z,8.59
2023-11-16T18:33:52.961Z,8.60
2023-11-16T18:35:30.929Z,8.61
2023-11-16T18:37:04.512Z,8.60
2023-11-16T18:38:38.067Z,8.59
2023-11-16T18:40:11.486Z,8.56
2023-11-16T18:41:44.853Z,8.55
2023-11-16T18:43:21.790Z,8.51
2023-11-16T18:44:59.128Z,8.47
2023-11-16T18:46:34.739Z,8.48
2023-11-16T18:48:10.000Z,8.49
2023-11-16T18:49:43.385Z,8.48
2023-11-16T18:51:17.879Z,8.47
2023-11-16T18:52:52.672Z,8.47
2023-11-16T18:54:29.457Z,8.43
2023-11-16T18:56:07.115Z,8.44
2023-11-16T18:57:44.141Z,8.43
2023-11-16T18:59:19.054Z,8.42
2023-11-16T19:00:52.252Z,8.42
2023-11-16T19:02:28.383Z,8.39
2023-11-16T19:04:01.711Z,8.37
2023-11-16T19:05:35.083Z,8.35
2023-11-16T19:07:08.562Z,8.29
2023-11-16T19:08:42.604Z,8.29
2023-11-16T19:10:15.869Z,8.25
2023-11-16T19:11:50.251Z,8.24
2023-11-16T19:13:26.925Z,8.19
2023-11-16T19:15:00.860Z,8.16
2023-11-16T19:16:34.355Z,8.12
2023-11-16T19:18:08.032Z,8.07
2023-11-16T19:19:42.873Z,8.02
2023-11-16T19:21:16.224Z,7.97
2023-11-16T19:22:51.683Z,7.92
2023-11-16T19:24:25.435Z,7.88
2023-11-16T19:26:00.039Z,7.82
2023-11-16T19:27:34.060Z,7.77
2023-11-16T19:29:08.319Z,7.69
2023-11-16T19:30:41.570Z,7.65
2023-11-16T19:32:18.043Z,7.59
2023-11-16T19:33:52.245Z,7.56
2023-11-16T19:35:25.500Z,7.51
2023-11-16T19:37:01.291Z,7.46
2023-11-16T19:38:34.384Z,7.42
2023-11-16T19:40:09.136Z,7.40
2023-11-16T19:41:46.676Z,7.39
2023-11-16T19:43:19.854Z,7.39
2023-11-16T19:44:56.123Z,7.38
2023-11-16T19:46:29.188Z,7.38
2023-11-16T19:48:02.608Z,7.39
2023-11-16T19:49:36.930Z,7.40
2023-11-16T19:51:11.159Z,7.42
2023-11-16T19:52:44.532Z,7.44
2023-11-16T19:54:17.908Z,7.48
2023-11-16T19:55:51.415Z,7.48
2023-11-16T19:57:25.490Z,7.50
2023-11-16T19:59:02.923Z,7.53
2023-11-16T20:00:37.646Z,7.55
2023-11-16T20:02:11.445Z,7.55
2023-11-16T20:03:45.619Z,7.59
2023-11-16T20:05:20.667Z,7.62
2023-11-16T20:06:54.052Z,7.64
2023-11-16T20:08:28.048Z,7.60
2023-11-16T20:10:01.633Z,7.64
2023-11-16T20:11:38.010Z,7.65
2023-11-16T20:13:11.433Z,7.65
2023-11-16T20:14:46.305Z,7.66
2023-11-16T20:16:19.847Z,7.70
2023-11-16T20:17:54.048Z,7.69
2023-11-16T20:19:27.295Z,7.74
2023-11-16T20:21:00.859Z,7.72
2023-11-16T20:22:37.644Z,7.73
2023-11-16T20:24:10.974Z,7.74
2023-11-16T20:25:44.221Z,7.76
2023-11-16T20:27:17.952Z,7.74
2023-11-16T20:28:54.094Z,7.75
2023-11-16T20:30:27.390Z,7.73
2023-11-16T20:32:03.841Z,7.69
2023-11-16T20:33:37.492Z,7.65
2023-11-16T20:35:13.204Z,7.61
2023-11-16T20:36:47.035Z,7.61
2023-11-16T20:38:22.713Z,7.58
2023-11-16T20:39:55.812Z,7.58
2023-11-16T20:41:38.495Z,7.56
2023-11-16T20:43:23.348Z,7.53
2023-11-16T20:44:56.851Z,7.55
2023-11-16T20:46:32.688Z,7.55
2023-11-16T20:48:09.159Z,7.54
2023-11-16T20:49:42.652Z,7.54
2023-11-16T20:51:17.268Z,7.54
2023-11-16T20:52:51.075Z,7.53
2023-11-16T20:54:24.408Z,7.52